Time;durP1;ratioP1;P1;durP2;ratioP2;P2;SDS_P1;SDS_P2;PMS_P1;PMS_P2;Temp;Humidity;BMP_temperature;BMP_pressure;BME280_temperature;BME280_humidity;BME280_pressure;Samples;Min_cycle;Max_cycle;Signal;HPM_P1;HPM_P2
2021/12/27 00:02:09;;;;;;;1999.90;999.90;;;;;;;;;;4977222;28;20219;-72
2021/12/27 00:04:54;;;;;;;1999.90;999.90;;;;;;;;;;4977273;28;20296;-71
2021/12/27 00:07:38;;;;;;;1999.90;999.90;;;;;;;;;;4970825;28;20684;-71
2021/12/27 00:10:27;;;;;;;1999.90;999.90;;;;;;;;;;4972505;28;20473;-72
2021/12/27 00:13:12;;;;;;;1999.90;999.90;;;;;;;;;;4976177;28;21053;-71
2021/12/27 00:15:56;;;;;;;1999.90;999.90;;;;;;;;;;4974662;28;20466;-71
2021/12/27 00:18:41;;;;;;;1999.90;999.90;;;;;;;;;;4972275;28;20449;-71
2021/12/27 00:21:26;;;;;;;1999.90;999.90;;;;;;;;;;4969294;28;20328;-71
2021/12/27 00:24:11;;;;;;;1999.90;999.90;;;;;;;;;;4976851;28;20215;-71
2021/12/27 00:26:58;;;;;;;1999.90;999.90;;;;;;;;;;4971895;28;20517;-71
2021/12/27 00:29:43;;;;;;;1999.90;999.90;;;;;;;;;;4973514;28;20479;-71
2021/12/27 00:32:28;;;;;;;1999.90;999.90;;;;;;;;;;4969637;28;20537;-71
2021/12/27 00:35:14;;;;;;;1999.90;999.90;;;;;;;;;;4976928;28;20440;-71
2021/12/27 00:38:00;;;;;;;1999.90;999.90;;;;;;;;;;4975363;28;20438;-73
2021/12/27 00:40:45;;;;;;;1999.90;999.90;;;;;;;;;;4977273;28;20480;-72
2021/12/27 00:43:31;;;;;;;1999.90;999.90;;;;;;;;;;4977115;28;20351;-71
2021/12/27 00:46:16;;;;;;;1999.90;999.90;;;;;;;;;;4980442;28;20440;-72
2021/12/27 00:49:01;;;;;;;1999.90;999.90;;;;;;;;;;4972018;28;20208;-71
2021/12/27 00:51:46;;;;;;;1999.90;999.90;;;;;;;;;;4971630;28;20431;-72
2021/12/27 00:54:31;;;;;;;1999.90;999.90;;;;;;;;;;4970989;28;20340;-72
2021/12/27 00:57:16;;;;;;;1999.90;999.90;;;;;;;;;;4978238;28;20332;-71
2021/12/27 01:00:03;;;;;;;1999.90;999.90;;;;;;;;;;4970302;28;20730;-71
2021/12/27 01:02:48;;;;;;;1999.90;999.90;;;;;;;;;;4971844;28;20215;-71
2021/12/27 01:05:34;;;;;;;1999.90;999.90;;;;;;;;;;4972452;28;20207;-71
2021/12/27 01:08:19;;;;;;;1999.90;999.90;;;;;;;;;;4979054;28;20216;-71
2021/12/27 01:11:24;;;;;;;1999.90;999.90;;;;;;;;;;4971628;28;20854;-72
2021/12/27 01:14:13;;;;;;;1999.90;999.90;;;;;;;;;;4971117;28;20239;-71
2021/12/27 01:16:59;;;;;;;1999.90;999.90;;;;;;;;;;4972036;28;20529;-72
2021/12/27 01:19:44;;;;;;;1999.90;999.90;;;;;;;;;;4965428;28;20457;-71
2021/12/27 01:22:29;;;;;;;1999.90;999.90;;;;;;;;;;4972653;28;20220;-71
2021/12/27 01:25:14;;;;;;;1999.90;999.90;;;;;;;;;;4971041;28;20994;-71
2021/12/27 01:27:59;;;;;;;1999.90;999.90;;;;;;;;;;4972090;28;20590;-71
2021/12/27 01:30:49;;;;;;;1999.90;999.90;;;;;;;;;;4972465;28;20256;-71
2021/12/27 01:33:35;;;;;;;1999.90;999.90;;;;;;;;;;4971484;28;20222;-71
2021/12/27 01:36:21;;;;;;;1999.90;999.90;;;;;;;;;;4970077;28;20222;-71
2021/12/27 01:39:06;;;;;;;1999.90;999.90;;;;;;;;;;4973022;28;20208;-71
2021/12/27 01:41:51;;;;;;;1999.90;999.90;;;;;;;;;;4970575;28;20215;-72
2021/12/27 01:44:35;;;;;;;1999.90;999.90;;;;;;;;;;4972216;28;20257;-72
2021/12/27 01:47:20;;;;;;;1999.90;999.90;;;;;;;;;;4971117;28;20223;-72
2021/12/27 01:50:07;;;;;;;1999.90;999.90;;;;;;;;;;4970813;28;20249;-71
2021/12/27 01:52:52;;;;;;;1999.90;999.90;;;;;;;;;;4972102;28;20457;-71
2021/12/27 01:55:38;;;;;;;1999.90;999.90;;;;;;;;;;4970993;28;20213;-71
2021/12/27 01:58:23;;;;;;;1999.90;999.90;;;;;;;;;;4968792;28;20461;-71
2021/12/27 02:01:10;;;;;;;1999.90;999.90;;;;;;;;;;4974646;28;20228;-71
2021/12/27 02:03:56;;;;;;;1999.90;999.90;;;;;;;;;;4967537;28;20441;-71
2021/12/27 02:06:43;;;;;;;1999.90;999.90;;;;;;;;;;4970291;28;20204;-72
2021/12/27 02:09:37;;;;;;;1999.90;999.90;;;;;;;;;;4967542;28;20521;-71
2021/12/27 02:12:21;;;;;;;1999.90;999.90;;;;;;;;;;4971208;28;20261;-71
2021/12/27 02:15:09;;;;;;;1999.90;999.90;;;;;;;;;;4973796;28;20307;-71
2021/12/27 02:17:55;;;;;;;1999.90;999.90;;;;;;;;;;4975122;28;20356;-71
2021/12/27 02:20:42;;;;;;;1999.90;999.90;;;;;;;;;;4976082;28;20309;-71
2021/12/27 02:23:27;;;;;;;1999.90;999.90;;;;;;;;;;4965909;28;20203;-71
2021/12/27 02:26:12;;;;;;;1999.90;999.90;;;;;;;;;;4981333;28;20215;-71
2021/12/27 02:28:57;;;;;;;1999.90;999.90;;;;;;;;;;4967797;28;20215;-71
2021/12/27 02:31:42;;;;;;;1999.90;999.90;;;;;;;;;;4971423;28;20218;-72
2021/12/27 02:34:27;;;;;;;1999.90;999.90;;;;;;;;;;4964291;28;20468;-71
2021/12/27 02:37:13;;;;;;;1999.90;999.90;;;;;;;;;;4970474;28;20223;-71
2021/12/27 02:39:58;;;;;;;1999.90;999.90;;;;;;;;;;4969528;28;20837;-71
2021/12/27 02:42:53;;;;;;;1999.90;999.90;;;;;;;;;;4970734;28;20247;-72
2021/12/27 02:45:39;;;;;;;1999.90;999.90;;;;;;;;;;4965067;28;20486;-71
2021/12/27 02:48:26;;;;;;;1999.90;999.90;;;;;;;;;;4971135;28;20212;-71
2021/12/27 02:51:10;;;;;;;1999.90;999.90;;;;;;;;;;4970509;28;20769;-71
2021/12/27 02:53:57;;;;;;;1999.90;999.90;;;;;;;;;;4972522;28;20227;-71
2021/12/27 02:56:41;;;;;;;1999.90;999.90;;;;;;;;;;4967164;28;20220;-71
2021/12/27 02:59:26;;;;;;;1999.90;999.90;;;;;;;;;;4971317;28;20698;-71
2021/12/27 03:02:11;;;;;;;1999.90;999.90;;;;;;;;;;4971846;28;20224;-71
2021/12/27 03:04:56;;;;;;;1999.90;999.90;;;;;;;;;;4970832;28;20203;-71
2021/12/27 03:07:41;;;;;;;1999.90;999.90;;;;;;;;;;4971537;28;20214;-71
2021/12/27 03:10:29;;;;;;;1999.90;999.90;;;;;;;;;;4969994;28;20228;-71
2021/12/27 03:13:16;;;;;;;1999.90;999.90;;;;;;;;;;4970653;28;20282;-71
2021/12/27 03:16:02;;;;;;;1999.90;999.90;;;;;;;;;;4970337;28;20291;-71
2021/12/27 03:18:49;;;;;;;1999.90;999.90;;;;;;;;;;4978011;28;20324;-71
2021/12/27 03:21:34;;;;;;;1999.90;999.90;;;;;;;;;;4971541;28;20298;-71
2021/12/27 03:24:19;;;;;;;1999.90;999.90;;;;;;;;;;4973666;28;20208;-71
2021/12/27 03:27:05;;;;;;;1999.90;999.90;;;;;;;;;;4976370;28;20231;-71
2021/12/27 03:29:50;;;;;;;1999.90;999.90;;;;;;;;;;4976718;28;20243;-71
2021/12/27 03:32:36;;;;;;;1999.90;999.90;;;;;;;;;;4975660;28;20286;-71
2021/12/27 03:35:27;;;;;;;1999.90;999.90;;;;;;;;;;4973050;28;20267;-71
2021/12/27 03:38:12;;;;;;;1999.90;999.90;;;;;;;;;;4977707;28;20219;-71
2021/12/27 03:40:57;;;;;;;1999.90;999.90;;;;;;;;;;4976808;28;20231;-72
2021/12/27 03:43:43;;;;;;;1999.90;999.90;;;;;;;;;;4975760;28;20208;-71
2021/12/27 03:46:28;;;;;;;1999.90;999.90;;;;;;;;;;4970572;28;20440;-71
2021/12/27 03:49:13;;;;;;;1999.90;999.90;;;;;;;;;;4977567;28;20577;-71
2021/12/27 03:51:58;;;;;;;1999.90;999.90;;;;;;;;;;4977254;28;20207;-71
2021/12/27 03:54:45;;;;;;;1999.90;999.90;;;;;;;;;;4972674;28;21632;-71
2021/12/27 03:57:32;;;;;;;1999.90;999.90;;;;;;;;;;4977743;28;20287;-71
2021/12/27 04:00:43;;;;;;;1999.90;999.90;;;;;;;;;;4971482;28;20339;-71
2021/12/27 04:03:28;;;;;;;1999.90;999.90;;;;;;;;;;4973534;28;20206;-71
2021/12/27 04:06:14;;;;;;;1999.90;999.90;;;;;;;;;;4976940;28;20224;-71
2021/12/27 04:08:59;;;;;;;1999.90;999.90;;;;;;;;;;4972908;28;20610;-71
2021/12/27 04:11:44;;;;;;;1999.90;999.90;;;;;;;;;;4971204;28;20542;-71
2021/12/27 04:14:29;;;;;;;1999.90;999.90;;;;;;;;;;4976231;28;20219;-71
2021/12/27 04:17:16;;;;;;;1999.90;999.90;;;;;;;;;;4977716;28;20228;-71
2021/12/27 04:20:01;;;;;;;1999.90;999.90;;;;;;;;;;4972037;28;20647;-70
2021/12/27 04:22:46;;;;;;;1999.90;999.90;;;;;;;;;;4978118;28;20259;-71
2021/12/27 04:25:31;;;;;;;1999.90;999.90;;;;;;;;;;4971950;28;20211;-71
2021/12/27 04:28:17;;;;;;;1999.90;999.90;;;;;;;;;;4976444;28;20215;-70
2021/12/27 04:31:02;;;;;;;1999.90;999.90;;;;;;;;;;4971891;28;21044;-71
2021/12/27 04:33:48;;;;;;;1999.90;999.90;;;;;;;;;;4972335;28;20299;-71
2021/12/27 04:36:33;;;;;;;1999.90;999.90;;;;;;;;;;4971975;28;20351;-71
2021/12/27 04:39:18;;;;;;;1999.90;999.90;;;;;;;;;;4979424;28;20295;-71
2021/12/27 04:42:04;;;;;;;1999.90;999.90;;;;;;;;;;4972526;28;20215;-71
2021/12/27 04:44:49;;;;;;;1999.90;999.90;;;;;;;;;;4975711;28;20211;-71
2021/12/27 04:47:34;;;;;;;1999.90;999.90;;;;;;;;;;4967189;28;20223;-73
2021/12/27 04:50:23;;;;;;;1999.90;999.90;;;;;;;;;;4972469;28;20363;-71
2021/12/27 04:53:08;;;;;;;1999.90;999.90;;;;;;;;;;4971702;28;20216;-71
2021/12/27 04:55:52;;;;;;;1999.90;999.90;;;;;;;;;;4973313;28;20240;-71
2021/12/27 04:58:37;;;;;;;1999.90;999.90;;;;;;;;;;4971152;28;20588;-71
2021/12/27 05:01:23;;;;;;;1999.90;999.90;;;;;;;;;;4972688;28;20253;-70
2021/12/27 05:04:08;;;;;;;1999.90;999.90;;;;;;;;;;4972746;28;20291;-71
2021/12/27 05:06:54;;;;;;;1999.90;999.90;;;;;;;;;;4974126;28;20207;-71
2021/12/27 05:09:39;;;;;;;1999.90;999.90;;;;;;;;;;4990699;28;20233;-71
2021/12/27 05:12:24;;;;;;;1999.90;999.90;;;;;;;;;;4986398;28;20548;-71
2021/12/27 05:15:09;;;;;;;1999.90;999.90;;;;;;;;;;4973729;28;20223;-71
2021/12/27 05:17:54;;;;;;;1999.90;999.90;;;;;;;;;;4973244;28;20212;-71
2021/12/27 05:20:39;;;;;;;1999.90;999.90;;;;;;;;;;4973808;28;20310;-72
2021/12/27 05:23:26;;;;;;;1999.90;999.90;;;;;;;;;;4973810;28;20295;-71
2021/12/27 05:26:11;;;;;;;1999.90;999.90;;;;;;;;;;4954601;28;20260;-72
2021/12/27 05:28:56;;;;;;;1999.90;999.90;;;;;;;;;;4954183;29;20299;-71
2021/12/27 05:31:41;;;;;;;1999.90;999.90;;;;;;;;;;4954354;29;20738;-71
2021/12/27 05:34:25;;;;;;;1999.90;999.90;;;;;;;;;;4954199;29;20332;-71
2021/12/27 05:37:10;;;;;;;1999.90;999.90;;;;;;;;;;4954084;29;20414;-71
2021/12/27 05:39:58;;;;;;;1999.90;999.90;;;;;;;;;;4953704;28;20228;-71
2021/12/27 05:42:43;;;;;;;1999.90;999.90;;;;;;;;;;4953895;28;20227;-71
2021/12/27 05:45:28;;;;;;;1999.90;999.90;;;;;;;;;;4963502;28;20205;-70
2021/12/27 05:48:12;;;;;;;1999.90;999.90;;;;;;;;;;4953026;28;20204;-71
2021/12/27 05:50:57;;;;;;;1999.90;999.90;;;;;;;;;;4966538;28;20236;-70
2021/12/27 05:53:43;;;;;;;1999.90;999.90;;;;;;;;;;4957661;28;20205;-73
2021/12/27 05:56:30;;;;;;;1999.90;999.90;;;;;;;;;;4966908;28;20227;-71
2021/12/27 05:59:16;;;;;;;1999.90;999.90;;;;;;;;;;4971099;28;20339;-72
2021/12/27 06:02:01;;;;;;;1999.90;999.90;;;;;;;;;;4965866;28;20212;-72
2021/12/27 06:04:46;;;;;;;1999.90;999.90;;;;;;;;;;4970264;28;20336;-72
2021/12/27 06:07:31;;;;;;;1999.90;999.90;;;;;;;;;;4962694;28;20220;-72
2021/12/27 06:10:17;;;;;;;1999.90;999.90;;;;;;;;;;4956413;28;20232;-72
2021/12/27 06:13:03;;;;;;;1999.90;999.90;;;;;;;;;;4968881;28;20212;-71
2021/12/27 06:15:48;;;;;;;1999.90;999.90;;;;;;;;;;4970339;28;20324;-72
2021/12/27 06:18:32;;;;;;;1999.90;999.90;;;;;;;;;;4959366;28;20205;-72
2021/12/27 06:21:17;;;;;;;1999.90;999.90;;;;;;;;;;4961175;28;20274;-71
2021/12/27 06:24:02;;;;;;;1999.90;999.90;;;;;;;;;;4954954;28;20240;-73
2021/12/27 06:26:49;;;;;;;1999.90;999.90;;;;;;;;;;4953269;28;20220;-70
2021/12/27 06:29:36;;;;;;;1999.90;999.90;;;;;;;;;;4952506;28;20979;-72
2021/12/27 06:32:20;;;;;;;1999.90;999.90;;;;;;;;;;4954766;28;20284;-73
2021/12/27 06:35:06;;;;;;;1999.90;999.90;;;;;;;;;;4959724;28;20231;-73
2021/12/27 06:37:51;;;;;;;1999.90;999.90;;;;;;;;;;4971211;28;20223;-73
2021/12/27 06:40:36;;;;;;;1999.90;999.90;;;;;;;;;;4969372;28;20232;-70
2021/12/27 06:43:21;;;;;;;1999.90;999.90;;;;;;;;;;4968039;28;20925;-71
2021/12/27 06:46:08;;;;;;;1999.90;999.90;;;;;;;;;;4973710;28;20204;-73
2021/12/27 06:48:53;;;;;;;1999.90;999.90;;;;;;;;;;4974550;28;20279;-72
2021/12/27 06:51:38;;;;;;;1999.90;999.90;;;;;;;;;;4978025;28;20240;-72
2021/12/27 06:54:23;;;;;;;1999.90;999.90;;;;;;;;;;4976620;28;20703;-73
2021/12/27 06:57:08;;;;;;;1999.90;999.90;;;;;;;;;;4977368;28;20235;-72
2021/12/27 06:59:53;;;;;;;1999.90;999.90;;;;;;;;;;4974450;28;20236;-73
2021/12/27 07:02:39;;;;;;;1999.90;999.90;;;;;;;;;;4973948;28;20207;-73
2021/12/27 07:05:24;;;;;;;1999.90;999.90;;;;;;;;;;4975230;28;20212;-73
2021/12/27 07:08:09;;;;;;;1999.90;999.90;;;;;;;;;;4974058;28;20454;-72
2021/12/27 07:10:54;;;;;;;1999.90;999.90;;;;;;;;;;4975244;28;21034;-73
2021/12/27 07:13:39;;;;;;;1999.90;999.90;;;;;;;;;;4973485;28;20216;-73
2021/12/27 07:16:25;;;;;;;1999.90;999.90;;;;;;;;;;4974829;28;20295;-73
2021/12/27 07:19:12;;;;;;;1999.90;999.90;;;;;;;;;;4979733;28;20215;-73
2021/12/27 07:21:57;;;;;;;1999.90;999.90;;;;;;;;;;4973593;28;20215;-73
2021/12/27 07:24:41;;;;;;;1999.90;999.90;;;;;;;;;;4974664;28;20360;-72
2021/12/27 07:27:26;;;;;;;1999.90;999.90;;;;;;;;;;4968482;28;20208;-73
2021/12/27 07:30:12;;;;;;;1999.90;999.90;;;;;;;;;;4983394;28;20251;-72
2021/12/27 07:32:57;;;;;;;1999.90;999.90;;;;;;;;;;4974720;28;20294;-73
2021/12/27 07:35:44;;;;;;;1999.90;999.90;;;;;;;;;;4977446;28;20295;-73
2021/12/27 07:38:29;;;;;;;1999.90;999.90;;;;;;;;;;4976202;28;20208;-72
2021/12/27 07:41:14;;;;;;;1999.90;999.90;;;;;;;;;;4974825;28;20269;-72
2021/12/27 07:43:59;;;;;;;1999.90;999.90;;;;;;;;;;4981391;28;20219;-73
2021/12/27 07:46:46;;;;;;;1999.90;999.90;;;;;;;;;;4973641;28;20224;-72
2021/12/27 07:49:30;;;;;;;1999.90;999.90;;;;;;;;;;4968164;28;20276;-72
2021/12/27 07:52:17;;;;;;;1999.90;999.90;;;;;;;;;;4972988;28;20300;-72
2021/12/27 07:55:03;;;;;;;1999.90;999.90;;;;;;;;;;4974047;28;20580;-73
2021/12/27 07:57:48;;;;;;;1999.90;999.90;;;;;;;;;;4972910;28;20211;-73
2021/12/27 08:00:32;;;;;;;1999.90;999.90;;;;;;;;;;4968092;28;20287;-73
2021/12/27 08:03:18;;;;;;;1999.90;999.90;;;;;;;;;;4971673;28;20926;-73
2021/12/27 08:06:03;;;;;;;1999.90;999.90;;;;;;;;;;4966593;28;20211;-72
2021/12/27 08:08:49;;;;;;;1999.90;999.90;;;;;;;;;;4969156;28;20212;-72
2021/12/27 08:11:35;;;;;;;1999.90;999.90;;;;;;;;;;4973082;28;20363;-73
2021/12/27 08:14:20;;;;;;;1999.90;999.90;;;;;;;;;;4969551;28;20215;-73
2021/12/27 08:17:06;;;;;;;1999.90;999.90;;;;;;;;;;4963650;28;20353;-72
2021/12/27 08:19:51;;;;;;;1999.90;999.90;;;;;;;;;;4961762;28;20343;-72
2021/12/27 08:22:36;;;;;;;1999.90;999.90;;;;;;;;;;4973070;28;20232;-72
2021/12/27 08:25:23;;;;;;;1999.90;999.90;;;;;;;;;;4971148;28;20702;-72
2021/12/27 08:28:08;;;;;;;1999.90;999.90;;;;;;;;;;4967000;28;20331;-72
2021/12/27 08:30:53;;;;;;;1999.90;999.90;;;;;;;;;;4966365;28;20284;-72
2021/12/27 08:33:38;;;;;;;1999.90;999.90;;;;;;;;;;4967836;28;20442;-72
2021/12/27 08:36:23;;;;;;;1999.90;999.90;;;;;;;;;;4956486;28;20224;-71
2021/12/27 08:39:08;;;;;;;1999.90;999.90;;;;;;;;;;4957440;28;20220;-72
2021/12/27 08:41:54;;;;;;;1999.90;999.90;;;;;;;;;;4974346;28;20200;-71
2021/12/27 08:44:39;;;;;;;1999.90;999.90;;;;;;;;;;4974670;28;20338;-70
2021/12/27 08:47:24;;;;;;;1999.90;999.90;;;;;;;;;;4974435;28;20212;-72
2021/12/27 08:50:12;;;;;;;1999.90;999.90;;;;;;;;;;4974403;28;20734;-72
2021/12/27 08:52:57;;;;;;;1999.90;999.90;;;;;;;;;;4964571;28;20260;-73
2021/12/27 08:55:42;;;;;;;1999.90;999.90;;;;;;;;;;4958446;28;20224;-72
2021/12/27 08:58:31;;;;;;;1999.90;999.90;;;;;;;;;;4962993;28;20232;-74
2021/12/27 09:01:16;;;;;;;1999.90;999.90;;;;;;;;;;4962087;28;20239;-72
2021/12/27 09:04:01;;;;;;;1999.90;999.90;;;;;;;;;;4975936;28;20587;-75
2021/12/27 09:06:46;;;;;;;1999.90;999.90;;;;;;;;;;4975095;28;20597;-72
2021/12/27 09:09:31;;;;;;;1999.90;999.90;;;;;;;;;;4977083;28;20207;-72
2021/12/27 09:12:16;;;;;;;1999.90;999.90;;;;;;;;;;4978387;28;20290;-70
2021/12/27 09:15:03;;;;;;;1999.90;999.90;;;;;;;;;;4973577;28;20204;-73
2021/12/27 09:17:48;;;;;;;1999.90;999.90;;;;;;;;;;4974550;28;20243;-74
2021/12/27 09:20:33;;;;;;;1999.90;999.90;;;;;;;;;;4969965;28;20723;-73
2021/12/27 09:23:18;;;;;;;1999.90;999.90;;;;;;;;;;4972006;28;20471;-73
2021/12/27 09:26:03;;;;;;;1999.90;999.90;;;;;;;;;;4976658;28;20212;-74
2021/12/27 09:28:48;;;;;;;1999.90;999.90;;;;;;;;;;4977975;28;20210;-74
2021/12/27 09:31:34;;;;;;;1999.90;999.90;;;;;;;;;;4968075;28;20290;-73
2021/12/27 09:34:19;;;;;;;1999.90;999.90;;;;;;;;;;4969396;28;20208;-74
2021/12/27 09:37:04;;;;;;;1999.90;999.90;;;;;;;;;;4967910;28;20243;-73
2021/12/27 09:39:53;;;;;;;1999.90;999.90;;;;;;;;;;4978902;28;20729;-74
2021/12/27 09:42:38;;;;;;;1999.90;999.90;;;;;;;;;;4971348;28;20232;-71
2021/12/27 09:45:23;;;;;;;1999.90;999.90;;;;;;;;;;4972200;28;20216;-73
2021/12/27 09:48:09;;;;;;;1999.90;999.90;;;;;;;;;;4981972;28;20191;-74
2021/12/27 09:50:55;;;;;;;1999.90;999.90;;;;;;;;;;4992930;28;20226;-72
2021/12/27 09:53:40;;;;;;;1999.90;999.90;;;;;;;;;;4975445;28;20419;-71
2021/12/27 09:56:25;;;;;;;1999.90;999.90;;;;;;;;;;4959716;28;20223;-72
2021/12/27 09:59:10;;;;;;;1999.90;999.90;;;;;;;;;;4968884;28;20220;-73
2021/12/27 10:01:54;;;;;;;1999.90;999.90;;;;;;;;;;4953678;28;20208;-70
2021/12/27 10:04:41;;;;;;;1999.90;999.90;;;;;;;;;;4953227;28;20208;-73
2021/12/27 10:07:27;;;;;;;1999.90;999.90;;;;;;;;;;4960021;28;20208;-71
2021/12/27 10:10:12;;;;;;;1999.90;999.90;;;;;;;;;;4961505;28;20739;-73
2021/12/27 10:12:57;;;;;;;1999.90;999.90;;;;;;;;;;4960857;28;20211;-74
2021/12/27 10:15:45;;;;;;;1999.90;999.90;;;;;;;;;;4956214;28;20719;-72
2021/12/27 10:18:30;;;;;;;1999.90;999.90;;;;;;;;;;4961824;28;20247;-72
2021/12/27 10:21:17;;;;;;;1999.90;999.90;;;;;;;;;;4952839;28;20227;-73
2021/12/27 10:24:03;;;;;;;1999.90;999.90;;;;;;;;;;4953972;29;20188;-73
2021/12/27 10:26:50;;;;;;;1999.90;999.90;;;;;;;;;;4955536;28;20696;-73
2021/12/27 10:29:36;;;;;;;1999.90;999.90;;;;;;;;;;4957641;28;20739;-74
2021/12/27 10:32:21;;;;;;;1999.90;999.90;;;;;;;;;;4957627;29;20200;-74
2021/12/27 10:35:06;;;;;;;1999.90;999.90;;;;;;;;;;4957960;29;20326;-72
2021/12/27 10:37:52;;;;;;;1999.90;999.90;;;;;;;;;;4957438;29;20248;-73
2021/12/27 10:40:37;;;;;;;1999.90;999.90;;;;;;;;;;4957627;28;20239;-74
2021/12/27 10:43:39;;;;;;;1999.90;999.90;;;;;;;;;;4957894;29;20216;-72
2021/12/27 10:46:24;;;;;;;1999.90;999.90;;;;;;;;;;4957536;29;20279;-71
2021/12/27 10:49:09;;;;;;;1999.90;999.90;;;;;;;;;;4956452;29;20424;-72
2021/12/27 10:51:55;;;;;;;1999.90;999.90;;;;;;;;;;4957441;29;20213;-72
2021/12/27 10:54:41;;;;;;;1999.90;999.90;;;;;;;;;;4957146;29;20578;-72
2021/12/27 10:57:26;;;;;;;1999.90;999.90;;;;;;;;;;4956910;29;20221;-72
2021/12/27 11:00:19;;;;;;;1999.90;999.90;;;;;;;;;;4957954;28;20315;-71
2021/12/27 11:03:04;;;;;;;1999.90;999.90;;;;;;;;;;4957273;29;20579;-72
2021/12/27 11:05:49;;;;;;;1999.90;999.90;;;;;;;;;;4964972;28;20196;-69
2021/12/27 11:08:35;;;;;;;1999.90;999.90;;;;;;;;;;4976156;28;20203;-72
2021/12/27 11:11:24;;;;;;;1999.90;999.90;;;;;;;;;;4976672;28;20237;-70
2021/12/27 11:14:09;;;;;;;1999.90;999.90;;;;;;;;;;4976687;28;20212;-72
2021/12/27 11:16:54;;;;;;;1999.90;999.90;;;;;;;;;;4975223;28;20495;-73
2021/12/27 11:19:39;;;;;;;1999.90;999.90;;;;;;;;;;4976212;28;20599;-73
2021/12/27 11:22:24;;;;;;;1999.90;999.90;;;;;;;;;;4976366;28;20209;-73
2021/12/27 11:25:20;;;;;;;1999.90;999.90;;;;;;;;;;4961763;28;20296;-73
2021/12/27 11:28:07;;;;;;;1999.90;999.90;;;;;;;;;;4995622;28;20208;-73
2021/12/27 11:30:52;;;;;;;1999.90;999.90;;;;;;;;;;4995514;28;20243;-73
2021/12/27 11:33:54;;;;;;;1999.90;999.90;;;;;;;;;;4995941;28;20197;-73
2021/12/27 11:36:40;;;;;;;1999.90;999.90;;;;;;;;;;4976244;28;20608;-74
2021/12/27 11:39:26;;;;;;;1999.90;999.90;;;;;;;;;;4978488;28;20682;-74
2021/12/27 11:42:12;;;;;;;1999.90;999.90;;;;;;;;;;4974672;28;20216;-74
2021/12/27 11:44:58;;;;;;;1999.90;999.90;;;;;;;;;;4973142;28;20714;-74
2021/12/27 11:47:43;;;;;;;1999.90;999.90;;;;;;;;;;4981466;28;20205;-73
2021/12/27 11:50:30;;;;;;;1999.90;999.90;;;;;;;;;;4968982;28;20307;-76
2021/12/27 11:53:25;;;;;;;1999.90;999.90;;;;;;;;;;4989190;28;20355;-72
2021/12/27 11:56:11;;;;;;;1999.90;999.90;;;;;;;;;;4974329;28;20213;-73
2021/12/27 11:58:56;;;;;;;1999.90;999.90;;;;;;;;;;4990130;28;20211;-73
2021/12/27 12:01:42;;;;;;;1999.90;999.90;;;;;;;;;;4974666;28;20570;-73
2021/12/27 12:04:40;;;;;;;1999.90;999.90;;;;;;;;;;4968542;28;20299;-73
2021/12/27 12:07:40;;;;;;;1999.90;999.90;;;;;;;;;;4973902;28;20207;-73
2021/12/27 12:10:26;;;;;;;1999.90;999.90;;;;;;;;;;4967905;28;20743;-73
2021/12/27 12:13:19;;;;;;;1999.90;999.90;;;;;;;;;;4973588;28;20219;-73
2021/12/27 12:16:06;;;;;;;1999.90;999.90;;;;;;;;;;4971432;28;20427;-74
2021/12/27 12:19:10;;;;;;;1999.90;999.90;;;;;;;;;;4973262;28;20334;-72
2021/12/27 12:21:54;;;;;;;1999.90;999.90;;;;;;;;;;4971122;28;20628;-71
2021/12/27 12:24:39;;;;;;;1999.90;999.90;;;;;;;;;;4968325;28;20801;-73
2021/12/27 12:27:24;;;;;;;1999.90;999.90;;;;;;;;;;4973640;28;20729;-72
2021/12/27 12:30:13;;;;;;;1999.90;999.90;;;;;;;;;;4972654;28;20621;-74
2021/12/27 12:32:58;;;;;;;1999.90;999.90;;;;;;;;;;4974249;28;20216;-72
2021/12/27 12:35:46;;;;;;;1999.90;999.90;;;;;;;;;;4973933;28;20203;-73
2021/12/27 12:38:32;;;;;;;1999.90;999.90;;;;;;;;;;4973625;28;20303;-73
2021/12/27 12:41:20;;;;;;;1999.90;999.90;;;;;;;;;;4972162;28;20446;-73
2021/12/27 12:44:05;;;;;;;1999.90;999.90;;;;;;;;;;4975523;28;20218;-74
2021/12/27 12:46:50;;;;;;;1999.90;999.90;;;;;;;;;;4971392;28;20224;-71
2021/12/27 12:49:35;;;;;;;1999.90;999.90;;;;;;;;;;4970988;28;20366;-74
2021/12/27 12:52:22;;;;;;;1999.90;999.90;;;;;;;;;;4981243;28;20577;-72
2021/12/27 12:55:07;;;;;;;1999.90;999.90;;;;;;;;;;4967687;28;20289;-71
2021/12/27 12:57:52;;;;;;;1999.90;999.90;;;;;;;;;;4975937;28;20222;-72
2021/12/27 13:00:37;;;;;;;1999.90;999.90;;;;;;;;;;4973705;28;20735;-73
2021/12/27 13:03:22;;;;;;;1999.90;999.90;;;;;;;;;;4978437;28;20260;-74
2021/12/27 13:06:08;;;;;;;1999.90;999.90;;;;;;;;;;4973469;28;20211;-72
2021/12/27 13:08:55;;;;;;;1999.90;999.90;;;;;;;;;;4973586;28;20721;-71
2021/12/27 13:11:40;;;;;;;1999.90;999.90;;;;;;;;;;4973051;28;20239;-73
2021/12/27 13:14:25;;;;;;;1999.90;999.90;;;;;;;;;;4968981;28;20336;-72
2021/12/27 13:17:11;;;;;;;1999.90;999.90;;;;;;;;;;4968673;28;20223;-73
2021/12/27 13:20:01;;;;;;;1999.90;999.90;;;;;;;;;;4965108;28;20346;-72
2021/12/27 13:22:50;;;;;;;1999.90;999.90;;;;;;;;;;4973142;28;20212;-74
2021/12/27 13:25:38;;;;;;;1999.90;999.90;;;;;;;;;;4967853;28;20218;-72
2021/12/27 13:28:25;;;;;;;1999.90;999.90;;;;;;;;;;4969869;28;20277;-72
2021/12/27 13:31:11;;;;;;;1999.90;999.90;;;;;;;;;;4966676;28;20324;-72
2021/12/27 13:34:04;;;;;;;1999.90;999.90;;;;;;;;;;4979251;28;20211;-71
2021/12/27 13:36:49;;;;;;;1999.90;999.90;;;;;;;;;;4959605;28;20293;-72
2021/12/27 13:39:34;;;;;;;1999.90;999.90;;;;;;;;;;4976504;28;20659;-72
2021/12/27 13:42:20;;;;;;;1999.90;999.90;;;;;;;;;;4975716;28;20265;-71
2021/12/27 13:45:10;;;;;;;1999.90;999.90;;;;;;;;;;4988822;28;20335;-72
2021/12/27 13:47:55;;;;;;;1999.90;999.90;;;;;;;;;;4954053;29;20331;-72
2021/12/27 13:50:42;;;;;;;1999.90;999.90;;;;;;;;;;4954209;28;20327;-72
2021/12/27 13:53:27;;;;;;;1999.90;999.90;;;;;;;;;;4954066;29;20284;-71
2021/12/27 13:56:15;;;;;;;1999.90;999.90;;;;;;;;;;4954358;29;20199;-71
2021/12/27 13:59:06;;;;;;;1999.90;999.90;;;;;;;;;;4964757;28;20239;-71
2021/12/27 14:01:54;;;;;;;1999.90;999.90;;;;;;;;;;4984311;28;20203;-72
2021/12/27 14:04:40;;;;;;;1999.90;999.90;;;;;;;;;;4967829;28;20211;-72
2021/12/27 14:07:25;;;;;;;1999.90;999.90;;;;;;;;;;4957232;28;20487;-72
2021/12/27 14:10:17;;;;;;;1999.90;999.90;;;;;;;;;;4972679;28;20326;-70
2021/12/27 14:13:03;;;;;;;1999.90;999.90;;;;;;;;;;4973162;28;20210;-72
2021/12/27 14:15:49;;;;;;;1999.90;999.90;;;;;;;;;;4973688;28;20293;-71
2021/12/27 14:18:34;;;;;;;1999.90;999.90;;;;;;;;;;4965377;28;20310;-72
2021/12/27 14:21:18;;;;;;;1999.90;999.90;;;;;;;;;;4953951;28;20235;-72
2021/12/27 14:24:04;;;;;;;1999.90;999.90;;;;;;;;;;4962233;28;21362;-74
2021/12/27 14:26:49;;;;;;;1999.90;999.90;;;;;;;;;;4976179;28;20806;-72
2021/12/27 14:29:34;;;;;;;1999.90;999.90;;;;;;;;;;4966620;28;20225;-72
2021/12/27 14:32:21;;;;;;;1999.90;999.90;;;;;;;;;;4974113;28;20206;-73
2021/12/27 14:35:16;;;;;;;1999.90;999.90;;;;;;;;;;4972390;28;20217;-73
2021/12/27 14:38:02;;;;;;;1999.90;999.90;;;;;;;;;;4972237;28;20227;-73
2021/12/27 14:40:48;;;;;;;1999.90;999.90;;;;;;;;;;4968600;28;20308;-73
2021/12/27 14:43:34;;;;;;;1999.90;999.90;;;;;;;;;;4965588;28;20206;-73
2021/12/27 14:46:20;;;;;;;1999.90;999.90;;;;;;;;;;4970572;28;20217;-73
2021/12/27 14:49:06;;;;;;;1999.90;999.90;;;;;;;;;;4971940;28;20203;-76
2021/12/27 14:51:51;;;;;;;1999.90;999.90;;;;;;;;;;4968491;28;20838;-73
2021/12/27 14:54:37;;;;;;;1999.90;999.90;;;;;;;;;;4975793;28;20219;-72
2021/12/27 14:57:22;;;;;;;1999.90;999.90;;;;;;;;;;4971971;28;20345;-73
2021/12/27 15:00:08;;;;;;;1999.90;999.90;;;;;;;;;;4974413;28;20353;-71
2021/12/27 15:02:53;;;;;;;1999.90;999.90;;;;;;;;;;4971988;28;20305;-72
2021/12/27 15:05:41;;;;;;;1999.90;999.90;;;;;;;;;;4972031;28;20347;-72
2021/12/27 15:08:26;;;;;;;1999.90;999.90;;;;;;;;;;4971646;28;20578;-72
2021/12/27 15:11:11;;;;;;;1999.90;999.90;;;;;;;;;;4969651;28;20769;-73
2021/12/27 15:13:56;;;;;;;1999.90;999.90;;;;;;;;;;4983744;28;20239;-74
2021/12/27 15:16:41;;;;;;;1999.90;999.90;;;;;;;;;;4974393;28;20599;-74
2021/12/27 15:19:26;;;;;;;1999.90;999.90;;;;;;;;;;4972859;28;20238;-71
2021/12/27 15:22:12;;;;;;;1999.90;999.90;;;;;;;;;;4976135;28;20304;-74
2021/12/27 15:24:57;;;;;;;1999.90;999.90;;;;;;;;;;4983176;28;20583;-74
2021/12/27 15:27:44;;;;;;;1999.90;999.90;;;;;;;;;;4975045;28;20210;-73